createdAt,value
2023-04-25T00:00:14.595Z,17.23
2023-04-25T00:02:41.299Z,14.05
2023-04-25T00:05:10.275Z,20.60
2023-04-25T00:07:36.980Z,15.60
2023-04-25T00:10:03.858Z,17.00
2023-04-25T00:12:30.408Z,19.05
2023-04-25T00:14:57.036Z,12.80
2023-04-25T00:17:23.662Z,17.30
2023-04-25T00:19:50.199Z,11.18
2023-04-25T00:22:18.123Z,11.93
2023-04-25T00:24:44.727Z,13.70
2023-04-25T00:27:11.995Z,12.00
2023-04-25T00:29:38.614Z,18.55
2023-04-25T00:32:05.458Z,15.27
2023-04-25T00:34:32.256Z,13.82
2023-04-25T00:36:58.974Z,18.23
2023-04-25T00:39:27.082Z,18.98
2023-04-25T00:41:54.794Z,15.00
2023-04-25T00:44:21.645Z,15.57
2023-04-25T00:46:48.518Z,16.52
2023-04-25T00:49:15.106Z,19.05
2023-04-25T00:51:42.209Z,10.57
2023-04-25T00:54:09.190Z,16.42
2023-04-25T00:56:37.181Z,18.58
2023-04-25T00:59:04.615Z,17.80
2023-04-25T01:01:31.258Z,12.35
2023-04-25T01:03:59.623Z,18.83
2023-04-25T01:06:26.478Z,14.93
2023-04-25T01:08:53.110Z,17.30
2023-04-25T01:11:19.732Z,18.35
2023-04-25T01:13:47.697Z,14.90
2023-04-25T01:16:14.794Z,18.60
2023-04-25T01:18:42.547Z,17.80
2023-04-25T01:21:11.450Z,18.95
2023-04-25T01:23:40.080Z,19.83
2023-04-25T01:26:07.689Z,16.52
2023-04-25T01:28:35.219Z,24.92
2023-04-25T01:31:02.444Z,19.05
2023-04-25T01:33:29.031Z,24.45
2023-04-25T01:35:55.605Z,18.27
2023-04-25T01:38:23.509Z,19.77
2023-04-25T01:40:52.225Z,21.83
2023-04-25T01:43:19.817Z,15.30
2023-04-25T01:45:46.720Z,16.33
2023-04-25T01:48:14.596Z,20.10
2023-04-25T01:50:43.864Z,22.83
2023-04-25T01:53:14.468Z,17.33
2023-04-25T01:55:44.318Z,16.70
2023-04-25T01:58:14.462Z,16.40
2023-04-25T02:01:05.819Z,26.70
2023-04-25T02:03:40.240Z,18.60
2023-04-25T02:06:12.465Z,17.25
2023-04-25T02:08:43.445Z,22.10
2023-04-25T02:11:13.601Z,21.52
2023-04-25T02:13:46.786Z,23.13
2023-04-25T02:16:32.866Z,25.33
2023-04-25T02:19:01.444Z,19.90
2023-04-25T02:21:28.110Z,17.33
2023-04-25T02:23:54.837Z,14.43
2023-04-25T02:26:22.763Z,22.17
2023-04-25T02:28:49.382Z,16.15
2023-04-25T02:31:16.072Z,20.48
2023-04-25T02:33:42.741Z,19.17
2023-04-25T02:36:09.349Z,21.75
2023-04-25T02:38:35.959Z,17.33
2023-04-25T02:41:04.245Z,12.52
2023-04-25T02:43:32.229Z,18.85
2023-04-25T02:45:58.835Z,18.35
2023-04-25T02:48:25.510Z,21.98
2023-04-25T02:50:52.202Z,18.00
2023-04-25T02:53:18.831Z,21.00
2023-04-25T02:55:49.462Z,15.90
2023-04-25T02:58:16.018Z,20.63
2023-04-25T03:00:47.797Z,19.65
2023-04-25T03:03:15.792Z,18.38
2023-04-25T03:05:42.509Z,17.83
2023-04-25T03:08:09.423Z,20.17
2023-04-25T03:10:38.064Z,18.90
2023-04-25T03:13:07.529Z,17.92
2023-04-25T03:15:34.266Z,16.85
2023-04-25T03:18:03.126Z,12.75
2023-04-25T03:20:29.722Z,23.15
2023-04-25T03:22:56.474Z,23.55
2023-04-25T03:25:23.018Z,18.13
2023-04-25T03:27:49.738Z,15.95
2023-04-25T03:30:16.369Z,22.30
2023-04-25T03:32:44.619Z,21.13
2023-04-25T03:35:16.631Z,23.35
2023-04-25T03:37:43.190Z,23.15
2023-04-25T03:40:10.232Z,20.40
2023-04-25T03:43:05.880Z,22.15
2023-04-25T03:45:33.802Z,21.67
2023-04-25T03:48:00.447Z,16.83
2023-04-25T03:50:30.208Z,24.05
2023-04-25T03:52:56.755Z,27.27
2023-04-25T03:55:26.017Z,22.05
2023-04-25T03:57:53.116Z,20.95
2023-04-25T04:00:19.812Z,19.83
2023-04-25T04:02:51.022Z,20.23
2023-04-25T04:05:18.784Z,21.02
2023-04-25T04:07:53.296Z,22.98
2023-04-25T04:10:19.913Z,22.60
2023-04-25T04:12:46.848Z,18.80
2023-04-25T04:15:14.097Z,22.90
2023-04-25T04:17:43.016Z,15.85
2023-04-25T04:20:10.294Z,19.48
2023-04-25T04:22:38.578Z,19.02
2023-04-25T04:25:11.231Z,23.83
2023-04-25T04:28:09.897Z,19.48
2023-04-25T04:30:42.958Z,23.42
2023-04-25T04:33:09.684Z,19.20
2023-04-25T04:35:36.891Z,22.25
2023-04-25T04:38:03.787Z,18.98
2023-04-25T04:40:35.396Z,25.35
2023-04-25T04:43:11.496Z,21.23
2023-04-25T04:46:02.256Z,20.33
2023-04-25T04:48:40.101Z,17.40
2023-04-25T04:51:18.888Z,23.52
2023-04-25T04:53:54.654Z,20.17
2023-04-25T04:56:32.175Z,21.98
2023-04-25T04:59:21.722Z,16.33
2023-04-25T05:02:08.563Z,16.50
2023-04-25T05:04:49.974Z,20.05
2023-04-25T05:07:35.338Z,14.80
2023-04-25T05:10:20.888Z,25.77
2023-04-25T05:13:07.917Z,18.30
2023-04-25T05:16:03.111Z,17.85
2023-04-25T05:18:56.154Z,22.00
2023-04-25T05:21:43.018Z,17.77
2023-04-25T05:24:31.115Z,18.27
2023-04-25T05:27:26.886Z,14.50
2023-04-25T05:30:15.119Z,15.38
2023-04-25T05:32:57.975Z,21.65
2023-04-25T05:35:25.241Z,19.80
2023-04-25T05:37:51.843Z,18.88
2023-04-25T05:40:21.386Z,20.02
2023-04-25T05:42:59.125Z,16.67
2023-04-25T05:45:47.362Z,18.73
2023-04-25T05:48:43.615Z,21.88
2023-04-25T05:51:29.005Z,23.33
2023-04-25T05:54:07.880Z,26.52
2023-04-25T05:56:35.197Z,20.45
2023-04-25T05:59:01.879Z,18.73
2023-04-25T06:01:29.841Z,22.98
2023-04-25T06:03:56.768Z,20.77
2023-04-25T06:06:23.679Z,16.10
2023-04-25T06:08:50.362Z,19.92
2023-04-25T06:11:17.027Z,20.50
2023-04-25T06:13:43.646Z,19.70
2023-04-25T06:16:11.799Z,25.58
2023-04-25T06:18:39.858Z,20.38
2023-04-25T06:21:06.485Z,15.38
2023-04-25T06:23:33.379Z,18.27
2023-04-25T06:26:05.271Z,22.13
2023-04-25T06:28:33.546Z,15.70
2023-04-25T06:31:00.238Z,11.38
2023-04-25T06:33:27.376Z,16.38
2023-04-25T06:35:56.614Z,20.13
2023-04-25T06:38:26.470Z,18.55
2023-04-25T06:40:56.063Z,19.58
2023-04-25T06:43:22.658Z,13.75
2023-04-25T06:45:58.592Z,18.35
2023-04-25T06:48:29.119Z,17.38
2023-04-25T06:50:57.176Z,11.70
2023-04-25T06:53:24.304Z,11.63
2023-04-25T06:58:24.409Z,13.65
2023-04-25T07:01:00.656Z,14.05
2023-04-25T07:03:28.296Z,16.35
2023-04-25T07:06:02.845Z,13.38
2023-04-25T07:08:29.947Z,12.77
2023-04-25T07:10:58.140Z,12.20
2023-04-25T07:13:24.868Z,17.25
2023-04-25T07:15:51.570Z,10.77
2023-04-25T07:18:20.599Z,16.73
2023-04-25T07:20:47.319Z,9.88
2023-04-25T07:23:15.447Z,13.95
2023-04-25T07:25:42.761Z,16.08
2023-04-25T07:28:09.542Z,16.85
2023-04-25T07:30:36.761Z,13.25
2023-04-25T07:33:04.570Z,13.35
2023-04-25T07:35:32.088Z,11.57
2023-04-25T07:37:58.793Z,15.13
2023-04-25T07:40:26.966Z,9.00
2023-04-25T07:42:58.604Z,14.65
2023-04-25T07:45:33.976Z,14.02
2023-04-25T07:48:01.430Z,12.75
2023-04-25T07:50:30.026Z,10.45
2023-04-25T07:52:56.622Z,13.50
2023-04-25T07:55:33.593Z,9.95
2023-04-25T07:58:08.826Z,12.45
2023-04-25T08:00:38.132Z,9.50
2023-04-25T08:03:23.591Z,10.70
2023-04-25T08:05:51.748Z,6.55
2023-04-25T08:08:19.167Z,7.28
2023-04-25T08:10:47.524Z,12.43
2023-04-25T08:13:16.354Z,9.13
2023-04-25T08:15:43.085Z,9.65
2023-04-25T08:18:09.923Z,6.63
2023-04-25T08:20:36.666Z,12.93
2023-04-25T08:23:05.796Z,9.93
2023-04-25T08:25:45.237Z,7.50
2023-04-25T08:28:15.372Z,8.82
2023-04-25T08:30:42.298Z,11.38
2023-04-25T08:33:12.441Z,7.35
2023-04-25T08:35:45.627Z,9.70
2023-04-25T08:38:12.681Z,11.88
2023-04-25T08:40:40.313Z,8.63
2023-04-25T08:43:19.707Z,6.40
2023-04-25T08:45:47.003Z,6.85
2023-04-25T08:48:36.989Z,11.13
2023-04-25T08:53:40.301Z,17.05
2023-04-25T08:56:07.885Z,8.48
2023-04-25T08:58:38.053Z,5.03
2023-04-25T09:01:04.867Z,6.25
2023-04-25T09:03:37.623Z,6.13
2023-04-25T09:06:04.702Z,7.32
2023-04-25T09:08:31.244Z,9.48
2023-04-25T09:10:57.907Z,7.47
2023-04-25T09:13:29.192Z,8.95
2023-04-25T09:16:15.729Z,4.68
2023-04-25T09:18:58.177Z,5.97
2023-04-25T09:21:24.803Z,5.95
2023-04-25T09:23:51.865Z,3.42
2023-04-25T09:26:22.092Z,2.45
2023-04-25T09:28:50.004Z,4.60
2023-04-25T09:31:24.128Z,4.70
2023-04-25T09:33:59.960Z,5.80
2023-04-25T09:36:27.894Z,6.72
2023-04-25T09:39:13.872Z,8.70
2023-04-25T09:41:41.928Z,4.30
2023-04-25T09:44:08.929Z,7.95
2023-04-25T09:46:38.981Z,8.55
2023-04-25T09:49:10.822Z,4.82
2023-04-25T09:51:55.979Z,5.70
2023-04-25T09:54:23.969Z,6.30
2023-04-25T09:56:58.448Z,5.43
2023-04-25T09:59:25.491Z,4.78
2023-04-25T10:01:55.567Z,7.82
2023-04-25T10:04:35.245Z,4.97
2023-04-25T10:07:07.159Z,5.88
2023-04-25T10:09:37.216Z,7.65
2023-04-25T10:12:04.402Z,4.60
2023-04-25T10:14:31.646Z,5.93
2023-04-25T10:17:00.423Z,4.03
2023-04-25T10:19:28.701Z,6.00
2023-04-25T10:22:02.071Z,3.80
2023-04-25T10:24:29.148Z,9.60
2023-04-25T10:26:58.155Z,5.60
2023-04-25T10:29:26.263Z,3.05
2023-04-25T10:31:53.481Z,3.65
2023-04-25T10:34:25.799Z,4.78
2023-04-25T10:39:24.463Z,9.98
2023-04-25T10:41:56.695Z,7.85
2023-04-25T10:46:49.799Z,5.00
2023-04-25T10:49:32.131Z,6.35
2023-04-25T10:54:41.722Z,4.82
2023-04-25T10:57:08.314Z,3.65
2023-04-25T10:59:34.916Z,6.32
2023-04-25T11:02:12.796Z,3.20
2023-04-25T11:04:41.641Z,5.03
2023-04-25T11:07:17.888Z,5.40
2023-04-25T11:09:46.542Z,2.80
2023-04-25T11:12:13.256Z,4.45
2023-04-25T11:17:07.748Z,4.38
2023-04-25T11:19:34.510Z,4.80
2023-04-25T11:22:03.466Z,4.93
2023-04-25T11:24:31.432Z,5.07
2023-04-25T11:26:59.206Z,3.72
2023-04-25T11:29:27.931Z,5.00
2023-04-25T11:31:55.622Z,3.75
2023-04-25T11:34:22.326Z,2.90
2023-04-25T11:36:48.970Z,2.83
2023-04-25T11:39:16.916Z,2.80
2023-04-25T11:41:45.938Z,1.02
2023-04-25T11:44:13.053Z,3.03
2023-04-25T11:46:39.682Z,1.25
2023-04-25T11:49:06.278Z,2.78
2023-04-25T11:51:39.490Z,3.22
2023-04-25T11:54:06.211Z,3.17
2023-04-25T11:56:34.617Z,3.70
2023-04-25T11:59:02.856Z,2.22
2023-04-25T12:01:31.678Z,2.80
2023-04-25T12:04:12.326Z,1.52
2023-04-25T12:06:39.420Z,4.72
2023-04-25T12:09:09.314Z,2.42
2023-04-25T12:11:43.144Z,2.72
2023-04-25T12:14:09.782Z,4.93
2023-04-25T12:16:44.320Z,5.50
2023-04-25T12:19:11.123Z,5.90
2023-04-25T12:21:46.897Z,4.38
2023-04-25T12:24:23.722Z,4.03
2023-04-25T12:26:53.968Z,5.35
2023-04-25T12:29:22.613Z,4.32
2023-04-25T12:31:50.204Z,5.38
2023-04-25T12:34:16.993Z,2.80
2023-04-25T12:36:43.574Z,3.67
2023-04-25T12:39:15.490Z,3.90
2023-04-25T12:41:42.111Z,7.70
2023-04-25T12:44:10.038Z,5.78
2023-04-25T12:46:36.915Z,5.88
2023-04-25T12:49:15.241Z,2.55
2023-04-25T12:51:45.045Z,2.97
2023-04-25T12:54:11.643Z,2.65
2023-04-25T12:56:38.191Z,7.78
2023-04-25T12:59:04.962Z,3.50
2023-04-25T13:01:34.700Z,3.78
2023-04-25T13:04:03.066Z,6.67
2023-04-25T13:06:29.861Z,7.05
2023-04-25T13:08:56.449Z,4.03
2023-04-25T13:11:23.007Z,2.95
2023-04-25T13:13:49.616Z,5.00
2023-04-25T13:16:16.398Z,7.20
2023-04-25T13:18:44.326Z,3.47
2023-04-25T13:21:11.233Z,6.75
2023-04-25T13:23:38.246Z,12.73
2023-04-25T13:26:04.982Z,4.40
2023-04-25T13:28:31.598Z,6.63
2023-04-25T13:30:58.174Z,4.18
2023-04-25T13:33:24.793Z,1.67
2023-04-25T13:35:52.899Z,1.55
2023-04-25T13:38:19.475Z,1.55
2023-04-25T13:40:46.072Z,3.03
2023-04-25T13:43:12.569Z,3.05
2023-04-25T13:45:40.156Z,2.22
2023-04-25T13:48:06.863Z,2.00
2023-04-25T13:50:33.609Z,2.05
2023-04-25T13:53:01.915Z,2.05
2023-04-25T13:55:28.672Z,1.90
2023-04-25T13:57:55.343Z,1.02
2023-04-25T14:00:22.079Z,1.75
2023-04-25T14:02:50.602Z,3.47
2023-04-25T14:05:17.590Z,2.03
2023-04-25T14:07:44.205Z,3.45
2023-04-25T14:10:12.293Z,2.13
2023-04-25T14:12:38.870Z,1.95
2023-04-25T14:15:06.534Z,3.05
2023-04-25T14:17:33.158Z,4.53
2023-04-25T14:19:59.692Z,4.47
2023-04-25T14:22:26.363Z,4.97
2023-04-25T14:24:52.962Z,4.13
2023-04-25T14:27:20.984Z,3.05
2023-04-25T14:29:47.607Z,2.70
2023-04-25T14:32:14.199Z,3.13
2023-04-25T14:34:40.795Z,2.45
2023-04-25T14:37:07.360Z,2.97
2023-04-25T14:39:33.950Z,4.00
2023-04-25T14:42:00.631Z,4.68
2023-04-25T14:44:28.532Z,4.60
2023-04-25T14:46:55.296Z,3.80
2023-04-25T14:49:22.018Z,2.22
2023-04-25T14:51:50.205Z,1.55
2023-04-25T14:54:18.408Z,2.80
2023-04-25T14:56:45.024Z,3.15
2023-04-25T14:59:11.618Z,2.63
2023-04-25T15:01:39.559Z,3.75
2023-04-25T15:04:06.521Z,1.95
2023-04-25T15:06:33.271Z,2.85
2023-04-25T15:08:59.857Z,3.38
2023-04-25T15:11:26.484Z,5.15
2023-04-25T15:13:53.469Z,7.53
2023-04-25T15:16:20.574Z,4.35
2023-04-25T15:18:48.586Z,4.63
2023-04-25T15:21:15.193Z,2.20
2023-04-25T15:23:41.813Z,4.03
2023-04-25T15:26:09.020Z,6.75
2023-04-25T15:28:35.698Z,3.15
2023-04-25T15:31:02.259Z,4.70
2023-04-25T15:33:28.858Z,3.80
2023-04-25T15:35:56.799Z,4.13
2023-04-25T15:38:23.436Z,4.10
2023-04-25T15:40:50.108Z,2.13
2023-04-25T15:43:16.912Z,4.35
2023-04-25T15:45:43.574Z,7.10
2023-04-25T15:48:10.181Z,4.15
2023-04-25T15:50:36.800Z,3.97
2023-04-25T15:53:06.986Z,2.28
2023-04-25T15:55:34.276Z,5.05
2023-04-25T15:58:00.917Z,2.42
2023-04-25T16:00:27.604Z,2.28
2023-04-25T16:02:54.556Z,6.88
2023-04-25T16:05:21.352Z,3.45
2023-04-25T16:07:48.472Z,3.20
2023-04-25T16:10:16.426Z,4.70
2023-04-25T16:12:43.014Z,7.13
2023-04-25T16:15:09.917Z,4.18
2023-04-25T16:17:36.660Z,4.50
2023-04-25T16:20:03.682Z,7.13
2023-04-25T16:22:30.262Z,4.07
2023-04-25T16:24:56.862Z,2.80
2023-04-25T16:27:24.839Z,7.03
2023-04-25T16:29:51.535Z,2.53
2023-04-25T16:32:18.358Z,4.18
2023-04-25T16:34:45.286Z,3.33
2023-04-25T16:37:11.870Z,3.08
2023-04-25T16:39:38.463Z,3.88
2023-04-25T16:42:06.122Z,4.60
2023-04-25T16:44:35.002Z,4.25
2023-04-25T16:47:01.679Z,3.85
2023-04-25T16:49:28.326Z,2.60
2023-04-25T16:51:54.967Z,2.05
2023-04-25T16:54:21.562Z,5.05
2023-04-25T16:56:48.149Z,2.55
2023-04-25T16:59:14.651Z,4.40
2023-04-25T17:01:42.605Z,3.50
2023-04-25T17:04:09.238Z,4.00
2023-04-25T17:06:36.029Z,2.88
2023-04-25T17:09:02.584Z,3.40
2023-04-25T17:11:29.312Z,5.45
2023-04-25T17:13:55.969Z,5.10
2023-04-25T17:16:22.720Z,9.15
2023-04-25T17:18:51.026Z,3.10
2023-04-25T17:21:18.051Z,2.63
2023-04-25T17:23:44.898Z,5.25
2023-04-25T17:26:11.703Z,2.83
2023-04-25T17:28:38.378Z,7.88
2023-04-25T17:31:05.029Z,5.95
2023-04-25T17:33:31.716Z,5.65
2023-04-25T17:35:59.738Z,4.55
2023-04-25T17:38:26.361Z,4.65
2023-04-25T17:40:53.319Z,5.82
2023-04-25T17:43:19.954Z,2.95
2023-04-25T17:45:46.568Z,6.57
2023-04-25T17:48:13.406Z,5.13
2023-04-25T17:50:40.037Z,3.28
2023-04-25T17:53:08.005Z,3.92
2023-04-25T17:55:34.601Z,3.92
2023-04-25T17:58:01.237Z,3.40
2023-04-25T18:00:27.853Z,3.80
2023-04-25T18:02:54.570Z,5.28
2023-04-25T18:05:21.404Z,4.32
2023-04-25T18:07:48.303Z,5.03
2023-04-25T18:10:16.178Z,4.25
2023-04-25T18:12:42.826Z,4.00
2023-04-25T18:15:10.156Z,3.83
2023-04-25T18:17:37.089Z,4.85
2023-04-25T18:20:04.192Z,5.07
2023-04-25T18:22:30.718Z,2.45
2023-04-25T18:24:57.371Z,4.45
2023-04-25T18:27:25.294Z,3.50
2023-04-25T18:29:51.798Z,7.15
2023-04-25T18:32:18.407Z,3.17
2023-04-25T18:34:44.945Z,8.45
2023-04-25T18:37:11.533Z,4.05
2023-04-25T18:39:38.132Z,5.75
2023-04-25T18:42:06.952Z,5.22
2023-04-25T18:44:35.262Z,6.63
2023-04-25T18:47:01.964Z,7.70
2023-04-25T18:49:28.564Z,5.40
2023-04-25T18:51:55.197Z,3.72
2023-04-25T18:54:21.739Z,7.60
2023-04-25T18:56:48.356Z,8.07
2023-04-25T18:59:14.959Z,6.30
2023-04-25T19:01:42.902Z,5.18
2023-04-25T19:04:09.595Z,5.55
2023-04-25T19:06:36.356Z,5.18
2023-04-25T19:09:02.996Z,3.58
2023-04-25T19:11:29.552Z,5.15
2023-04-25T19:13:56.248Z,5.05
2023-04-25T19:16:22.791Z,6.45
2023-04-25T19:18:50.896Z,6.47
2023-04-25T19:21:17.565Z,7.22
2023-04-25T19:23:44.240Z,7.10
2023-04-25T19:26:10.775Z,8.95
2023-04-25T19:28:37.410Z,10.05
2023-04-25T19:31:04.331Z,5.53
2023-04-25T19:33:31.062Z,6.65
2023-04-25T19:35:58.990Z,6.95
2023-04-25T19:38:25.604Z,7.32
2023-04-25T19:40:52.200Z,9.80
2023-04-25T19:43:19.202Z,7.15
2023-04-25T19:45:45.905Z,6.45
2023-04-25T19:48:12.496Z,9.35
2023-04-25T19:50:39.084Z,6.30
2023-04-25T19:53:07.042Z,7.20
2023-04-25T19:55:33.553Z,4.57
2023-04-25T19:58:00.178Z,3.58
2023-04-25T20:00:26.784Z,9.63
2023-04-25T20:02:53.575Z,9.55
2023-04-25T20:05:20.292Z,10.77
2023-04-25T20:07:46.982Z,11.60
2023-04-25T20:10:14.818Z,8.25
2023-04-25T20:12:41.449Z,5.30
2023-04-25T20:15:09.102Z,5.80
2023-04-25T20:17:35.966Z,6.20
2023-04-25T20:20:02.608Z,5.97
2023-04-25T20:22:29.182Z,6.85
2023-04-25T20:24:55.780Z,4.70
2023-04-25T20:27:23.660Z,6.78
2023-04-25T20:29:50.239Z,8.60
2023-04-25T20:32:16.800Z,7.55
2023-04-25T20:34:43.325Z,6.00
2023-04-25T20:37:09.950Z,5.93
2023-04-25T20:39:36.485Z,5.00
2023-04-25T20:42:03.117Z,11.32
2023-04-25T20:44:31.040Z,5.40
2023-04-25T20:46:57.764Z,7.50
2023-04-25T20:49:24.408Z,5.65
2023-04-25T20:51:51.055Z,8.13
2023-04-25T20:54:17.706Z,4.18
2023-04-25T20:56:44.328Z,10.80
2023-04-25T20:59:10.908Z,7.55
2023-04-25T21:01:39.087Z,10.50
2023-04-25T21:04:05.883Z,12.77
2023-04-25T21:06:32.599Z,6.13
2023-04-25T21:08:59.318Z,6.82
2023-04-25T21:11:26.025Z,7.45
2023-04-25T21:13:52.695Z,9.63
2023-04-25T21:16:19.284Z,6.38
2023-04-25T21:18:47.311Z,7.63
2023-04-25T21:21:13.887Z,8.25
2023-04-25T21:23:42.091Z,6.80
2023-04-25T21:26:08.677Z,6.22
2023-04-25T21:28:35.226Z,5.97
2023-04-25T21:31:01.829Z,5.97
2023-04-25T21:33:28.413Z,9.15
2023-04-25T21:35:56.369Z,10.43
2023-04-25T21:38:23.080Z,7.55
2023-04-25T21:40:49.767Z,7.28
2023-04-25T21:43:16.412Z,5.82
2023-04-25T21:46:05.779Z,11.10
2023-04-25T21:48:29.554Z,6.82
2023-04-25T21:50:57.548Z,6.88
2023-04-25T21:53:24.273Z,12.73
2023-04-25T21:55:50.823Z,8.55
2023-04-25T21:58:17.341Z,5.80
2023-04-25T22:00:44.011Z,8.38
2023-04-25T22:03:10.818Z,5.93
2023-04-25T22:05:37.433Z,12.90
2023-04-25T22:08:05.545Z,10.90
2023-04-25T22:10:32.100Z,8.15
2023-04-25T22:12:58.740Z,8.18
2023-04-25T22:15:25.515Z,7.57
2023-04-25T22:17:52.875Z,8.20
2023-04-25T22:20:19.823Z,9.80
2023-04-25T22:22:46.470Z,8.63
2023-04-25T22:25:15.439Z,10.30
2023-04-25T22:27:42.035Z,7.53
2023-04-25T22:30:10.175Z,5.80
2023-04-25T22:32:36.969Z,8.63
2023-04-25T22:35:04.079Z,9.77
2023-04-25T22:37:30.837Z,9.70
2023-04-25T22:39:57.506Z,6.35
2023-04-25T22:42:25.372Z,7.13
2023-04-25T22:44:51.963Z,7.80
2023-04-25T22:47:18.557Z,9.93
2023-04-25T22:49:45.167Z,7.25
2023-04-25T22:52:11.735Z,7.60
2023-04-25T22:54:38.351Z,10.93
2023-04-25T22:57:06.512Z,9.90
2023-04-25T22:59:34.509Z,8.48
2023-04-25T23:02:01.167Z,10.07
2023-04-25T23:04:27.882Z,9.82
2023-04-25T23:06:54.598Z,5.97
2023-04-25T23:09:21.109Z,9.05
2023-04-25T23:11:47.678Z,6.50
2023-04-25T23:14:14.214Z,12.00
2023-04-25T23:16:42.202Z,8.27
2023-04-25T23:19:08.737Z,12.50
2023-04-25T23:21:35.277Z,7.07
2023-04-25T23:24:01.881Z,6.35
2023-04-25T23:26:28.401Z,7.18
2023-04-25T23:28:55.139Z,6.70
2023-04-25T23:31:21.978Z,7.40
2023-04-25T23:33:49.921Z,7.38
2023-04-25T23:36:17.172Z,10.50
2023-04-25T23:38:43.698Z,9.13
2023-04-25T23:41:10.311Z,8.63
2023-04-25T23:43:36.804Z,8.20
2023-04-25T23:46:03.441Z,10.20
2023-04-25T23:48:30.088Z,8.25
2023-04-25T23:50:58.071Z,5.72
2023-04-25T23:53:24.737Z,6.97
2023-04-25T23:55:51.316Z,7.18
2023-04-25T23:58:17.870Z,9.05
